createdAt,value
2017-03-08T00:00:01.874Z,8.3
2017-03-08T00:05:01.409Z,8.3
2017-03-08T00:10:02.163Z,8.3
2017-03-08T00:15:02.040Z,8.3
2017-03-08T00:20:01.272Z,8.4
2017-03-08T00:25:02.104Z,8.4
2017-03-08T00:30:01.876Z,8.3
2017-03-08T00:35:01.316Z,8.4
2017-03-08T00:40:01.221Z,8.4
2017-03-08T00:45:02.118Z,8.4
2017-03-08T00:50:01.480Z,8.4
2017-03-08T00:55:01.352Z,8.4
2017-03-08T01:00:01.233Z,8.3
2017-03-08T01:05:01.597Z,8.3
2017-03-08T01:10:01.433Z,8.4
2017-03-08T01:15:01.348Z,8.3
2017-03-08T01:20:01.811Z,8.3
2017-03-08T01:25:01.785Z,8.3
2017-03-08T01:30:01.906Z,8.3
2017-03-08T01:35:01.683Z,8.3
2017-03-08T01:40:01.777Z,8.4
2017-03-08T01:45:01.930Z,8.3
2017-03-08T01:50:01.459Z,8.3
2017-03-08T01:55:01.176Z,8.3
2017-03-08T02:00:01.974Z,8.4
2017-03-08T02:05:01.577Z,8.3
2017-03-08T02:10:01.784Z,8.3
2017-03-08T02:15:01.540Z,8.3
2017-03-08T02:20:01.555Z,8.3
2017-03-08T02:25:01.564Z,8.3
2017-03-08T02:30:01.401Z,8.3
2017-03-08T02:35:02.114Z,8.3
2017-03-08T02:40:01.918Z,8.3
2017-03-08T02:45:01.778Z,8.3
2017-03-08T02:50:01.677Z,8.4
2017-03-08T02:55:01.411Z,8.4
2017-03-08T03:00:01.624Z,8.4
2017-03-08T03:05:01.265Z,8.3
2017-03-08T03:10:01.310Z,8.3
2017-03-08T03:15:01.175Z,8.4
2017-03-08T03:20:01.408Z,8.4
2017-03-08T03:25:01.808Z,8.4
2017-03-08T03:30:01.363Z,8.4
2017-03-08T03:35:02.073Z,8.3
2017-03-08T03:40:01.688Z,8.4
2017-03-08T03:45:01.334Z,8.4
2017-03-08T03:50:01.884Z,8.3
2017-03-08T03:55:01.721Z,8.4
2017-03-08T04:00:01.841Z,8.4
2017-03-08T04:05:01.354Z,8.4
2017-03-08T04:10:02.192Z,8.3
2017-03-08T04:15:01.594Z,8.3
2017-03-08T04:20:01.360Z,8.3
2017-03-08T04:25:01.638Z,8.3
2017-03-08T04:30:01.730Z,8.4
2017-03-08T04:35:01.907Z,8.3
2017-03-08T04:40:01.227Z,8.3
2017-03-08T04:45:01.540Z,8.3
2017-03-08T04:50:01.782Z,8.3
2017-03-08T04:55:01.340Z,8.3
2017-03-08T05:00:01.587Z,8.4
2017-03-08T05:05:01.539Z,8.3
2017-03-08T05:10:01.602Z,8.3
2017-03-08T05:15:02.095Z,8.4
2017-03-08T05:20:01.822Z,8.4
2017-03-08T05:25:01.493Z,8.3
2017-03-08T05:30:01.752Z,8.3
2017-03-08T05:35:01.908Z,8.3
2017-03-08T05:40:01.963Z,8.3
2017-03-08T05:45:01.559Z,8.3
2017-03-08T05:50:01.732Z,8.3
2017-03-08T05:55:01.368Z,8.3
2017-03-08T06:00:01.677Z,8.2
2017-03-08T06:05:01.232Z,8.3
2017-03-08T06:10:01.238Z,8.2
2017-03-08T06:15:01.531Z,8.2
2017-03-08T06:20:02.122Z,8.2
2017-03-08T06:25:01.362Z,8.3
2017-03-08T06:30:01.523Z,8.3
2017-03-08T06:35:01.256Z,8.3
2017-03-08T06:40:02.059Z,8.3
2017-03-08T06:45:01.827Z,8.3
2017-03-08T06:50:01.589Z,8.3
2017-03-08T06:55:01.267Z,8.3
2017-03-08T07:00:01.380Z,8.3
2017-03-08T07:05:02.352Z,8.3
2017-03-08T07:10:01.323Z,8.3
2017-03-08T07:15:01.918Z,8.3
2017-03-08T07:20:01.913Z,8.3
2017-03-08T07:25:01.725Z,8.3
2017-03-08T07:30:01.664Z,8.3
2017-03-08T07:35:01.279Z,8.3
2017-03-08T07:40:01.331Z,8.3
2017-03-08T07:45:01.973Z,8.3
2017-03-08T07:50:01.464Z,8.3
2017-03-08T07:55:01.950Z,8.3
2017-03-08T08:00:01.268Z,8.3
2017-03-08T08:05:01.469Z,8.3
2017-03-08T08:10:01.942Z,8.3
2017-03-08T08:15:01.267Z,8.3
2017-03-08T08:20:01.644Z,8.3
2017-03-08T08:25:01.669Z,8.3
2017-03-08T08:30:02.176Z,8.3
2017-03-08T08:35:01.581Z,8.3
2017-03-08T08:40:01.761Z,8.3
2017-03-08T08:45:01.239Z,8.3
2017-03-08T08:50:02.059Z,8.3
2017-03-08T08:55:01.603Z,8.3
2017-03-08T09:00:01.783Z,8.3
2017-03-08T09:05:01.212Z,8.3
2017-03-08T09:10:01.420Z,8.3
2017-03-08T09:15:02.150Z,8.3
2017-03-08T09:20:01.398Z,8.3
2017-03-08T09:25:01.447Z,8.3
2017-03-08T09:30:01.908Z,8.3
2017-03-08T09:35:01.811Z,8.3
2017-03-08T09:40:02.005Z,8.3
2017-03-08T09:45:01.895Z,8.3
2017-03-08T09:50:01.245Z,8.3
2017-03-08T09:55:01.775Z,8.3
2017-03-08T10:00:01.524Z,8.6
2017-03-08T10:05:01.850Z,8.6
2017-03-08T10:10:01.626Z,8.6
2017-03-08T10:15:01.982Z,8.7
2017-03-08T10:20:01.415Z,8.7
2017-03-08T10:25:01.446Z,8.7
2017-03-08T10:30:01.860Z,8.7
2017-03-08T10:35:01.455Z,8.8
2017-03-08T10:40:01.311Z,8.8
2017-03-08T10:45:01.452Z,8.8
2017-03-08T10:50:02.010Z,8.8
2017-03-08T10:55:01.775Z,8.8
2017-03-08T11:00:02.268Z,9
2017-03-08T11:05:01.778Z,9
2017-03-08T11:10:01.661Z,9.1
2017-03-08T11:15:01.847Z,9.2
2017-03-08T11:20:02.051Z,9.2
2017-03-08T11:25:01.185Z,9.2
2017-03-08T11:30:01.558Z,9.3
2017-03-08T11:35:01.926Z,9.2
2017-03-08T11:40:01.701Z,9.4
2017-03-08T11:45:01.453Z,9.4
2017-03-08T11:50:01.945Z,9.5
2017-03-08T11:55:01.657Z,9.5
2017-03-08T12:00:01.292Z,9.5
2017-03-08T12:05:01.819Z,9.5
2017-03-08T12:10:02.044Z,9.6
2017-03-08T12:15:01.835Z,9.6
2017-03-08T12:20:02.103Z,9.7
2017-03-08T12:25:02.125Z,9.6
2017-03-08T12:30:01.395Z,9.7
2017-03-08T12:35:01.990Z,9.7
2017-03-08T12:40:01.801Z,9.8
2017-03-08T12:45:01.658Z,9.8
2017-03-08T12:50:01.927Z,9.9
2017-03-08T12:55:01.480Z,9.9
2017-03-08T13:00:01.814Z,9.9
2017-03-08T13:05:02.129Z,9.9
2017-03-08T13:10:01.987Z,10
2017-03-08T13:15:01.479Z,9.9
2017-03-08T13:20:01.463Z,10
2017-03-08T13:25:01.597Z,10
2017-03-08T13:30:02.045Z,10
2017-03-08T13:35:01.310Z,10
2017-03-08T13:40:01.210Z,9.9
2017-03-08T13:45:01.972Z,10
2017-03-08T13:50:01.489Z,10
2017-03-08T13:55:01.849Z,10
2017-03-08T14:00:01.366Z,10
2017-03-08T14:05:01.266Z,9.9
2017-03-08T14:10:01.739Z,10
2017-03-08T14:15:01.562Z,10
2017-03-08T14:20:02.053Z,9.9
2017-03-08T14:25:01.494Z,9.9
2017-03-08T14:30:01.935Z,10
2017-03-08T14:35:01.688Z,10
2017-03-08T14:40:01.226Z,10
2017-03-08T14:45:01.408Z,10
2017-03-08T14:50:01.490Z,10
2017-03-08T14:55:01.789Z,10.1
2017-03-08T15:00:01.850Z,10.1
2017-03-08T15:05:01.190Z,10.1
2017-03-08T15:10:01.835Z,10.2
2017-03-08T15:15:01.672Z,10.2
2017-03-08T15:20:01.466Z,10.2
2017-03-08T15:25:01.882Z,10.2
2017-03-08T15:30:01.836Z,10.2
2017-03-08T15:35:01.905Z,10.2
2017-03-08T15:40:01.214Z,10.1
2017-03-08T15:45:02.096Z,10
2017-03-08T15:50:01.381Z,10
2017-03-08T15:55:01.474Z,10
2017-03-08T16:00:01.554Z,9.9
2017-03-08T16:05:01.244Z,9.7
2017-03-08T16:10:02.041Z,9.6
2017-03-08T16:15:01.504Z,9.5
2017-03-08T16:20:01.964Z,9.5
2017-03-08T16:25:01.879Z,9.5
2017-03-08T16:30:01.276Z,9.5
2017-03-08T16:35:01.284Z,9.3
2017-03-08T16:40:01.996Z,9.3
2017-03-08T16:45:01.470Z,9.3
2017-03-08T16:50:01.778Z,9.2
2017-03-08T16:55:01.356Z,9.2
2017-03-08T17:00:01.730Z,9.2
2017-03-08T17:05:02.105Z,9.2
2017-03-08T17:10:02.006Z,9.2
2017-03-08T17:15:01.831Z,9.1
2017-03-08T17:20:01.391Z,9.1
2017-03-08T17:25:01.440Z,9.1
2017-03-08T17:30:01.656Z,9.1
2017-03-08T17:35:02.067Z,9
2017-03-08T17:40:02.045Z,9
2017-03-08T17:45:01.528Z,8.9
2017-03-08T17:50:01.760Z,8.9
2017-03-08T17:55:01.805Z,8.9
2017-03-08T18:00:01.901Z,8.8
2017-03-08T18:05:01.420Z,8.8
2017-03-08T18:10:01.696Z,8.8
2017-03-08T18:15:02.032Z,8.8
2017-03-08T18:20:01.617Z,8.8
2017-03-08T18:25:01.919Z,8.8
2017-03-08T18:30:01.776Z,8.8
2017-03-08T18:35:01.661Z,8.8
2017-03-08T18:40:01.923Z,8.8
2017-03-08T18:45:01.728Z,8.8
2017-03-08T18:50:02.114Z,8.8
2017-03-08T18:55:01.318Z,8.7
2017-03-08T19:00:01.705Z,8.7
2017-03-08T19:05:01.944Z,8.7
2017-03-08T19:10:01.506Z,8.7
2017-03-08T19:15:01.212Z,8.7
2017-03-08T19:20:01.536Z,8.7
2017-03-08T19:25:02.200Z,8.7
2017-03-08T19:30:02.122Z,8.7
2017-03-08T19:35:01.298Z,8.7
2017-03-08T19:40:01.730Z,8.6
2017-03-08T19:45:01.595Z,8.6
2017-03-08T19:50:02.159Z,8.6
2017-03-08T19:55:01.821Z,8.6
2017-03-08T20:00:02.113Z,8.6
2017-03-08T20:05:02.098Z,8.6
2017-03-08T20:10:01.499Z,8.6
2017-03-08T20:15:02.373Z,8.6
2017-03-08T20:20:02.052Z,8.6
2017-03-08T20:25:02.038Z,8.6
2017-03-08T20:30:01.861Z,8.6
2017-03-08T20:35:01.367Z,8.6
2017-03-08T20:40:02.071Z,8.6
2017-03-08T20:45:01.380Z,8.6
2017-03-08T20:50:01.885Z,8.6
2017-03-08T20:55:02.174Z,8.5
2017-03-08T21:00:02.043Z,8.5
2017-03-08T21:05:01.356Z,8.5
2017-03-08T21:10:01.425Z,8.5
2017-03-08T21:15:02.026Z,8.5
2017-03-08T21:20:01.742Z,8.5
2017-03-08T21:25:01.833Z,8.5
2017-03-08T21:30:02.028Z,8.5
2017-03-08T21:35:01.813Z,8.5
2017-03-08T21:40:01.612Z,8.5
2017-03-08T21:45:01.789Z,8.5
2017-03-08T21:50:01.295Z,8.5
2017-03-08T21:55:02.042Z,8.5
2017-03-08T22:00:02.075Z,8.5
2017-03-08T22:05:01.980Z,8.5
2017-03-08T22:10:01.944Z,8.5
2017-03-08T22:15:01.490Z,8.5
2017-03-08T22:20:01.578Z,8.5
2017-03-08T22:25:01.735Z,8.6
2017-03-08T22:30:01.812Z,8.5
2017-03-08T22:35:02.069Z,8.5
2017-03-08T22:40:02.070Z,8.5
2017-03-08T22:45:01.222Z,8.5
2017-03-08T22:50:02.109Z,8.5
2017-03-08T22:55:02.234Z,8.5
2017-03-08T23:00:01.641Z,8.5
2017-03-08T23:05:02.414Z,8.5
2017-03-08T23:10:01.285Z,8.5
2017-03-08T23:15:01.912Z,8.5
2017-03-08T23:20:02.102Z,8.5
2017-03-08T23:25:01.154Z,8.5
2017-03-08T23:30:02.193Z,8.5
2017-03-08T23:35:01.653Z,8.6
2017-03-08T23:40:01.819Z,8.6
2017-03-08T23:45:02.045Z,8.6
2017-03-08T23:50:02.158Z,8.6
2017-03-08T23:55:01.943Z,8.6
